Time;durP1;ratioP1;P1;durP2;ratioP2;P2;SDS_P1;SDS_P2;PMS_P1;PMS_P2;Temp;Humidity;BMP_temperature;BMP_pressure;BME280_temperature;BME280_humidity;BME280_pressure;Samples;Min_cycle;Max_cycle;Signal;HPM_P1;HPM_P2
2023/02/20 00:00:00;;;;;;;4.37;3.50;;;;;;;;;;4938441;28;20602;-70
2023/02/20 00:02:25;;;;;;;5.07;3.67;;;;;;;;;;4936464;28;20191;-71
2023/02/20 00:04:50;;;;;;;5.27;3.43;;;;;;;;;;4955614;28;20207;-71
2023/02/20 00:07:16;;;;;;;5.53;3.63;;;;;;;;;;4950620;28;20194;-71
2023/02/20 00:09:41;;;;;;;4.87;3.80;;;;;;;;;;4951659;28;20234;-71
2023/02/20 00:12:06;;;;;;;6.07;4.00;;;;;;;;;;4956133;28;20266;-71
2023/02/20 00:14:32;;;;;;;6.17;3.60;;;;;;;;;;4950258;28;21140;-71
2023/02/20 00:16:57;;;;;;;6.30;3.80;;;;;;;;;;4959127;28;20217;-71
2023/02/20 00:19:22;;;;;;;4.70;4.20;;;;;;;;;;4939113;28;20289;-71
2023/02/20 00:21:49;;;;;;;4.97;3.97;;;;;;;;;;4937558;28;20553;-71
2023/02/20 00:24:14;;;;;;;7.63;4.37;;;;;;;;;;4937244;28;20174;-71
2023/02/20 00:26:44;;;;;;;5.20;3.87;;;;;;;;;;4953633;28;20481;-72
2023/02/20 00:29:10;;;;;;;7.83;4.87;;;;;;;;;;4955674;28;20226;-72
2023/02/20 00:31:35;;;;;;;5.60;4.47;;;;;;;;;;4953499;28;20461;-72
2023/02/20 00:34:00;;;;;;;8.10;5.33;;;;;;;;;;4940583;28;20651;-71
2023/02/20 00:36:25;;;;;;;9.70;5.23;;;;;;;;;;4957792;28;20237;-72
2023/02/20 00:38:51;;;;;;;7.43;4.97;;;;;;;;;;4956030;28;20189;-72
2023/02/20 00:41:16;;;;;;;7.40;5.50;;;;;;;;;;4955677;28;20560;-71
2023/02/20 00:43:42;;;;;;;8.90;5.77;;;;;;;;;;4937699;28;20656;-72
2023/02/20 00:46:09;;;;;;;7.73;5.50;;;;;;;;;;4952406;28;20673;-72
2023/02/20 00:48:34;;;;;;;8.00;5.80;;;;;;;;;;4954429;28;20202;-72
2023/02/20 00:51:00;;;;;;;9.77;5.93;;;;;;;;;;4928942;28;20990;-71
2023/02/20 00:53:25;;;;;;;9.80;5.90;;;;;;;;;;4954567;28;20175;-72
2023/02/20 00:55:50;;;;;;;7.30;5.77;;;;;;;;;;4939814;28;20187;-72
2023/02/20 00:58:16;;;;;;;9.73;6.43;;;;;;;;;;4952919;28;20193;-71
2023/02/20 01:00:41;;;;;;;8.40;6.33;;;;;;;;;;4956755;28;20316;-72
2023/02/20 01:03:06;;;;;;;8.43;6.60;;;;;;;;;;4956136;28;20183;-72
2023/02/20 01:05:31;;;;;;;9.43;6.77;;;;;;;;;;4954964;28;20627;-72
2023/02/20 01:07:57;;;;;;;7.83;7.00;;;;;;;;;;4933131;28;20179;-72
2023/02/20 01:10:22;;;;;;;13.27;7.90;;;;;;;;;;4952868;28;20612;-71
2023/02/20 01:12:47;;;;;;;10.60;7.50;;;;;;;;;;4958480;28;20175;-72
2023/02/20 01:15:13;;;;;;;10.10;7.70;;;;;;;;;;4955143;28;20190;-72
2023/02/20 01:17:39;;;;;;;8.80;7.57;;;;;;;;;;4981745;23;20882;-71
2023/02/20 01:20:04;;;;;;;9.70;6.97;;;;;;;;;;4985921;28;20429;-71
2023/02/20 01:22:29;;;;;;;10.83;7.97;;;;;;;;;;4985812;28;20657;-71
2023/02/20 01:24:55;;;;;;;10.60;7.37;;;;;;;;;;4984462;28;20567;-70
2023/02/20 01:27:20;;;;;;;10.80;7.83;;;;;;;;;;4976559;28;20263;-70
2023/02/20 01:29:45;;;;;;;15.53;7.70;;;;;;;;;;4981351;28;20181;-71
2023/02/20 01:32:11;;;;;;;14.03;8.20;;;;;;;;;;4984893;28;20185;-71
2023/02/20 01:34:36;;;;;;;10.40;7.57;;;;;;;;;;4983588;28;20186;-70
2023/02/20 01:37:02;;;;;;;10.70;7.53;;;;;;;;;;4982953;28;20562;-71
2023/02/20 01:39:29;;;;;;;9.90;7.50;;;;;;;;;;4980265;28;20675;-71
2023/02/20 01:41:57;;;;;;;14.30;8.07;;;;;;;;;;4986856;28;20295;-71
2023/02/20 01:44:25;;;;;;;10.30;7.63;;;;;;;;;;4990290;28;20480;-71
2023/02/20 01:46:51;;;;;;;10.33;7.70;;;;;;;;;;4982495;28;20480;-71
2023/02/20 01:49:20;;;;;;;10.00;7.07;;;;;;;;;;4984834;28;20896;-71
2023/02/20 01:51:48;;;;;;;10.23;8.20;;;;;;;;;;4984224;28;20469;-71
2023/02/20 01:54:17;;;;;;;10.07;7.70;;;;;;;;;;4981628;28;20443;-71
2023/02/20 01:56:44;;;;;;;11.63;8.27;;;;;;;;;;4995150;28;20464;-71
2023/02/20 01:59:10;;;;;;;9.93;7.83;;;;;;;;;;4983826;28;20441;-71
2023/02/20 02:01:36;;;;;;;8.40;6.80;;;;;;;;;;4981587;28;20756;-70
2023/02/20 02:04:03;;;;;;;10.60;8.07;;;;;;;;;;4990138;28;20441;-71
2023/02/20 02:06:31;;;;;;;10.20;7.10;;;;;;;;;;4986502;28;20515;-70
2023/02/20 02:08:58;;;;;;;9.97;7.80;;;;;;;;;;4974155;28;20965;-71
2023/02/20 02:11:24;;;;;;;9.40;7.77;;;;;;;;;;4984480;28;20436;-70
2023/02/20 02:13:49;;;;;;;11.00;7.77;;;;;;;;;;4986583;28;20968;-71
2023/02/20 02:16:14;;;;;;;9.63;7.80;;;;;;;;;;4987510;28;20460;-70
2023/02/20 02:18:46;;;;;;;15.50;8.60;;;;;;;;;;4978209;28;20770;-71
2023/02/20 02:21:18;;;;;;;11.20;7.80;;;;;;;;;;4984939;28;20186;-71
2023/02/20 02:24:01;;;;;;;10.87;8.30;;;;;;;;;;4987996;28;20451;-71
2023/02/20 02:26:45;;;;;;;9.43;7.60;;;;;;;;;;4982865;28;20483;-71
2023/02/20 02:29:29;;;;;;;12.40;7.90;;;;;;;;;;4987169;28;20556;-71
2023/02/20 02:32:26;;;;;;;14.10;8.70;;;;;;;;;;4983164;28;20524;-70
2023/02/20 02:34:58;;;;;;;10.70;8.07;;;;;;;;;;4985916;28;20616;-70
2023/02/20 02:37:33;;;;;;;11.90;8.87;;;;;;;;;;4982999;28;20547;-69
2023/02/20 02:39:59;;;;;;;9.70;8.40;;;;;;;;;;4977767;28;20437;-70
2023/02/20 02:42:50;;;;;;;13.20;8.60;;;;;;;;;;4977547;28;20437;-70
2023/02/20 02:45:16;;;;;;;11.70;8.23;;;;;;;;;;4972809;28;20214;-70
2023/02/20 02:47:41;;;;;;;10.60;8.13;;;;;;;;;;4982338;28;20467;-70
2023/02/20 02:50:11;;;;;;;12.90;9.87;;;;;;;;;;4984165;28;20556;-69
2023/02/20 02:52:37;;;;;;;13.90;9.70;;;;;;;;;;4983350;28;20181;-69
2023/02/20 02:55:06;;;;;;;9.90;7.90;;;;;;;;;;4985030;28;20437;-70
2023/02/20 02:57:31;;;;;;;13.40;9.40;;;;;;;;;;4982563;28;20221;-70
2023/02/20 02:59:59;;;;;;;11.53;7.87;;;;;;;;;;4985474;28;20437;-69
2023/02/20 03:02:27;;;;;;;14.83;8.10;;;;;;;;;;4988278;28;20174;-69
2023/02/20 03:04:53;;;;;;;11.10;8.90;;;;;;;;;;4987813;28;20436;-70
2023/02/20 03:07:19;;;;;;;13.07;8.53;;;;;;;;;;4985218;28;20461;-71
2023/02/20 03:09:51;;;;;;;12.30;8.43;;;;;;;;;;4980731;28;20429;-69
2023/02/20 03:12:17;;;;;;;12.23;8.67;;;;;;;;;;4982836;28;20181;-70
2023/02/20 03:18:09;;;;;;;12.20;8.93;;;;;;;;;;4984416;28;20662;-70
2023/02/20 03:20:45;;;;;;;12.80;9.33;;;;;;;;;;4979777;28;20444;-70
2023/02/20 03:23:16;;;;;;;12.30;8.67;;;;;;;;;;4982492;28;20578;-69
2023/02/20 03:25:46;;;;;;;13.77;8.73;;;;;;;;;;4984956;28;20459;-69
2023/02/20 03:28:21;;;;;;;13.27;8.70;;;;;;;;;;4986215;28;20456;-70
2023/02/20 03:30:59;;;;;;;13.00;8.07;;;;;;;;;;4986951;28;20447;-69
2023/02/20 03:44:50;;;;;;;11.80;7.17;;;;;;;;;;4988959;28;20410;-70
2023/02/20 03:47:17;;;;;;;12.07;8.07;;;;;;;;;;4988283;28;20452;-69
2023/02/20 03:49:43;;;;;;;12.37;8.77;;;;;;;;;;4986244;28;20723;-69
2023/02/20 03:52:09;;;;;;;17.33;9.10;;;;;;;;;;4987072;28;20422;-70
2023/02/20 03:54:35;;;;;;;14.80;8.80;;;;;;;;;;4985292;28;20428;-70
2023/02/20 03:57:12;;;;;;;12.77;8.80;;;;;;;;;;4989029;28;20276;-69
2023/02/20 03:59:39;;;;;;;13.57;8.90;;;;;;;;;;4988632;28;20579;-70
2023/02/20 04:02:08;;;;;;;14.83;9.30;;;;;;;;;;4989020;28;20970;-69
2023/02/20 04:04:36;;;;;;;15.40;9.00;;;;;;;;;;4981103;28;21280;-70
2023/02/20 04:07:03;;;;;;;13.80;8.70;;;;;;;;;;4984600;28;20491;-70
2023/02/20 04:09:31;;;;;;;12.87;8.40;;;;;;;;;;4982938;28;20469;-70
2023/02/20 04:12:02;;;;;;;21.10;10.40;;;;;;;;;;4982228;28;20480;-70
2023/02/20 04:14:28;;;;;;;20.03;8.97;;;;;;;;;;4984259;28;20425;-69
2023/02/20 04:16:57;;;;;;;17.57;9.90;;;;;;;;;;4978041;28;20503;-70
2023/02/20 04:19:24;;;;;;;16.57;9.83;;;;;;;;;;4982102;28;20437;-69
2023/02/20 04:21:51;;;;;;;20.00;9.10;;;;;;;;;;4983904;28;20453;-70
2023/02/20 04:24:22;;;;;;;18.97;9.60;;;;;;;;;;4984112;28;20455;-70
2023/02/20 04:26:47;;;;;;;17.13;9.47;;;;;;;;;;4983978;28;20495;-69
2023/02/20 04:29:13;;;;;;;16.70;9.07;;;;;;;;;;4983345;28;20933;-71
2023/02/20 04:31:38;;;;;;;16.37;8.83;;;;;;;;;;4985268;28;20178;-70
2023/02/20 04:34:03;;;;;;;15.93;9.80;;;;;;;;;;4984835;28;20189;-70
2023/02/20 04:36:29;;;;;;;14.43;9.63;;;;;;;;;;4982495;28;20252;-70
2023/02/20 04:38:54;;;;;;;22.23;10.03;;;;;;;;;;4984913;28;20205;-69
2023/02/20 04:41:19;;;;;;;15.17;9.40;;;;;;;;;;4983373;28;20614;-70
2023/02/20 04:43:44;;;;;;;14.23;8.50;;;;;;;;;;4984898;28;20187;-70
2023/02/20 04:46:10;;;;;;;19.43;10.63;;;;;;;;;;4981535;28;20596;-70
2023/02/20 04:48:35;;;;;;;22.07;9.63;;;;;;;;;;4982990;28;20534;-70
2023/02/20 04:51:00;;;;;;;20.90;9.80;;;;;;;;;;4983448;28;20181;-70
2023/02/20 04:53:26;;;;;;;17.73;9.00;;;;;;;;;;4983375;28;20563;-70
2023/02/20 04:55:51;;;;;;;18.07;8.70;;;;;;;;;;4982058;28;20233;-70
2023/02/20 04:58:16;;;;;;;21.13;9.53;;;;;;;;;;4982588;28;20186;-70
2023/02/20 05:00:41;;;;;;;20.43;10.30;;;;;;;;;;4982400;28;20557;-70
2023/02/20 05:03:07;;;;;;;15.27;9.13;;;;;;;;;;4978807;28;20188;-69
2023/02/20 05:05:32;;;;;;;18.73;10.30;;;;;;;;;;4984615;28;20686;-69
2023/02/20 05:08:00;;;;;;;17.63;9.20;;;;;;;;;;4985687;28;20197;-70
2023/02/20 05:10:26;;;;;;;20.43;10.47;;;;;;;;;;4980302;28;20261;-70
2023/02/20 05:12:52;;;;;;;24.30;10.30;;;;;;;;;;4997037;28;20575;-69
2023/02/20 05:15:18;;;;;;;20.43;9.77;;;;;;;;;;4989994;28;20437;-70
2023/02/20 05:17:43;;;;;;;16.30;9.80;;;;;;;;;;4987767;28;20221;-70
2023/02/20 05:20:09;;;;;;;21.23;11.60;;;;;;;;;;4985283;28;20451;-70
2023/02/20 05:22:34;;;;;;;24.93;10.70;;;;;;;;;;4985268;28;20185;-69
2023/02/20 05:25:00;;;;;;;19.20;9.73;;;;;;;;;;4982070;28;20335;-70
2023/02/20 05:27:26;;;;;;;22.97;9.87;;;;;;;;;;4984968;28;20221;-69
2023/02/20 05:29:52;;;;;;;23.47;9.93;;;;;;;;;;4986209;28;20671;-69
2023/02/20 05:32:18;;;;;;;22.23;10.77;;;;;;;;;;4984682;28;20186;-70
2023/02/20 05:34:44;;;;;;;21.60;9.80;;;;;;;;;;4985405;28;20447;-70
2023/02/20 05:37:10;;;;;;;16.30;9.30;;;;;;;;;;4984184;28;20664;-70
2023/02/20 05:39:35;;;;;;;26.67;10.80;;;;;;;;;;4985771;28;20186;-69
2023/02/20 05:42:01;;;;;;;18.27;9.73;;;;;;;;;;4987438;28;20424;-69
2023/02/20 05:44:26;;;;;;;20.60;9.37;;;;;;;;;;4990486;28;20265;-70
2023/02/20 05:46:53;;;;;;;16.43;9.60;;;;;;;;;;4991276;28;20271;-70
2023/02/20 05:49:18;;;;;;;19.83;9.90;;;;;;;;;;4990016;28;20185;-70
2023/02/20 05:51:43;;;;;;;27.80;10.70;;;;;;;;;;4988875;28;20424;-69
2023/02/20 05:54:09;;;;;;;17.97;10.10;;;;;;;;;;4990209;28;20224;-70
2023/02/20 05:56:34;;;;;;;18.73;10.00;;;;;;;;;;4986711;28;20353;-70
2023/02/20 05:59:00;;;;;;;22.47;9.30;;;;;;;;;;4989937;28;20181;-70
2023/02/20 06:01:27;;;;;;;20.53;8.90;;;;;;;;;;4990443;28;20189;-70
2023/02/20 06:03:52;;;;;;;19.63;8.83;;;;;;;;;;4984734;28;20440;-70
2023/02/20 06:06:18;;;;;;;18.70;9.70;;;;;;;;;;4984937;28;20542;-70
2023/02/20 06:08:43;;;;;;;18.77;9.50;;;;;;;;;;4988050;28;20197;-70
2023/02/20 06:11:09;;;;;;;22.63;9.13;;;;;;;;;;4983891;28;20213;-70
2023/02/20 06:13:35;;;;;;;19.43;8.70;;;;;;;;;;4985234;28;20190;-69
2023/02/20 06:16:00;;;;;;;17.00;9.40;;;;;;;;;;4984745;28;20925;-70
2023/02/20 06:18:26;;;;;;;17.90;8.93;;;;;;;;;;4979424;28;20252;-70
2023/02/20 06:20:51;;;;;;;18.30;8.87;;;;;;;;;;4982451;28;20190;-70
2023/02/20 06:23:16;;;;;;;17.00;8.87;;;;;;;;;;4987124;28;20192;-70
2023/02/20 06:25:41;;;;;;;24.33;9.67;;;;;;;;;;4982792;28;20296;-70
2023/02/20 06:28:07;;;;;;;22.27;8.27;;;;;;;;;;4983506;28;20193;-70
2023/02/20 06:30:32;;;;;;;19.67;9.90;;;;;;;;;;4985467;28;20240;-70
2023/02/20 06:32:57;;;;;;;17.83;8.73;;;;;;;;;;4990822;28;20170;-70
2023/02/20 06:35:22;;;;;;;20.33;8.80;;;;;;;;;;4988329;28;20181;-71
2023/02/20 06:37:48;;;;;;;19.80;9.03;;;;;;;;;;4978986;28;20210;-70
2023/02/20 06:40:13;;;;;;;28.33;9.00;;;;;;;;;;4989233;28;20232;-70
2023/02/20 06:42:38;;;;;;;23.03;9.10;;;;;;;;;;4989303;28;20271;-70
2023/02/20 06:45:04;;;;;;;17.60;7.90;;;;;;;;;;4988906;28;20361;-70
2023/02/20 06:47:29;;;;;;;25.10;9.37;;;;;;;;;;4973539;28;20577;-70
2023/02/20 06:49:54;;;;;;;13.83;7.93;;;;;;;;;;4987424;28;20543;-70
2023/02/20 06:52:19;;;;;;;21.13;7.20;;;;;;;;;;4987423;28;20181;-71
2023/02/20 06:54:45;;;;;;;19.40;8.80;;;;;;;;;;4986806;28;20542;-70
2023/02/20 06:57:10;;;;;;;16.90;7.33;;;;;;;;;;4985038;28;20580;-70
2023/02/20 06:59:40;;;;;;;23.63;8.03;;;;;;;;;;4987731;28;20228;-70
2023/02/20 07:02:06;;;;;;;14.20;7.13;;;;;;;;;;4989423;28;20201;-70
2023/02/20 07:04:31;;;;;;;14.83;6.60;;;;;;;;;;4988378;28;20452;-71
2023/02/20 07:06:58;;;;;;;19.90;7.90;;;;;;;;;;4988683;28;20993;-70
2023/02/20 07:09:24;;;;;;;16.17;6.93;;;;;;;;;;4988433;28;20182;-71
2023/02/20 07:11:50;;;;;;;22.13;7.93;;;;;;;;;;4988766;28;20432;-70
2023/02/20 07:14:16;;;;;;;13.93;6.77;;;;;;;;;;4984813;28;20185;-70
2023/02/20 07:16:41;;;;;;;14.20;7.00;;;;;;;;;;4994162;28;20465;-70
2023/02/20 07:19:06;;;;;;;18.33;7.40;;;;;;;;;;4987667;28;20165;-70
2023/02/20 07:21:32;;;;;;;15.20;6.40;;;;;;;;;;4988168;28;20179;-71
2023/02/20 07:23:57;;;;;;;15.90;7.00;;;;;;;;;;4986050;28;20206;-72
2023/02/20 07:26:25;;;;;;;15.17;7.33;;;;;;;;;;4988778;28;20201;-72
2023/02/20 07:28:51;;;;;;;17.03;7.03;;;;;;;;;;4986603;28;20180;-72
2023/02/20 07:31:16;;;;;;;18.20;6.30;;;;;;;;;;4993826;23;20497;-72
2023/02/20 07:33:42;;;;;;;21.43;7.50;;;;;;;;;;4984558;28;20178;-72
2023/02/20 07:36:08;;;;;;;11.67;6.30;;;;;;;;;;4969324;28;20236;-72
2023/02/20 07:38:34;;;;;;;14.97;7.43;;;;;;;;;;4984843;28;20436;-72
2023/02/20 07:40:59;;;;;;;19.53;6.80;;;;;;;;;;4984012;28;20460;-72
2023/02/20 07:43:24;;;;;;;15.97;7.00;;;;;;;;;;4987792;28;20642;-72
2023/02/20 07:45:49;;;;;;;15.00;6.50;;;;;;;;;;4987747;28;20205;-72
2023/02/20 07:48:15;;;;;;;21.47;7.57;;;;;;;;;;4986767;28;20734;-72
2023/02/20 07:50:40;;;;;;;15.30;6.60;;;;;;;;;;4985876;28;20204;-72
2023/02/20 07:53:05;;;;;;;15.53;6.87;;;;;;;;;;4986240;28;20177;-73
2023/02/20 07:55:31;;;;;;;15.13;6.73;;;;;;;;;;4986833;28;20189;-73
2023/02/20 07:57:57;;;;;;;12.23;6.13;;;;;;;;;;4985310;28;20192;-73
2023/02/20 08:00:23;;;;;;;11.80;6.23;;;;;;;;;;4968831;28;20213;-70
2023/02/20 08:02:48;;;;;;;12.23;5.80;;;;;;;;;;4987827;28;20914;-70
2023/02/20 08:05:14;;;;;;;13.50;6.27;;;;;;;;;;4987863;28;20500;-70
2023/02/20 08:07:43;;;;;;;9.67;6.20;;;;;;;;;;4984678;28;20189;-70
2023/02/20 08:10:08;;;;;;;18.30;6.40;;;;;;;;;;4967249;28;20746;-71
2023/02/20 08:12:34;;;;;;;17.43;7.40;;;;;;;;;;4988076;28;20508;-70
2023/02/20 08:14:59;;;;;;;18.37;6.17;;;;;;;;;;4985998;28;20265;-72
2023/02/20 08:17:24;;;;;;;16.87;5.93;;;;;;;;;;4963980;28;20182;-71
2023/02/20 08:19:49;;;;;;;21.13;6.30;;;;;;;;;;4969878;28;20563;-70
2023/02/20 08:22:15;;;;;;;14.03;6.80;;;;;;;;;;4970332;28;20383;-71
2023/02/20 08:24:40;;;;;;;11.07;6.10;;;;;;;;;;4980649;28;20183;-71
2023/02/20 08:27:05;;;;;;;12.57;6.10;;;;;;;;;;4983535;28;20199;-70
2023/02/20 08:29:31;;;;;;;11.33;5.67;;;;;;;;;;4986785;28;20174;-70
2023/02/20 08:31:56;;;;;;;16.93;7.30;;;;;;;;;;4967954;28;20190;-70
2023/02/20 08:34:21;;;;;;;10.63;6.13;;;;;;;;;;4986339;28;20181;-71
2023/02/20 08:36:47;;;;;;;19.03;5.50;;;;;;;;;;4968778;28;20659;-70
2023/02/20 08:39:12;;;;;;;10.73;5.77;;;;;;;;;;4985405;28;20178;-70
2023/02/20 08:41:42;;;;;;;15.50;6.33;;;;;;;;;;4970524;28;20264;-70
2023/02/20 08:44:07;;;;;;;13.37;6.03;;;;;;;;;;4961486;28;20287;-71
2023/02/20 08:46:32;;;;;;;15.37;6.20;;;;;;;;;;4986699;28;20953;-71
2023/02/20 08:48:58;;;;;;;11.90;6.10;;;;;;;;;;4973030;28;20188;-70
2023/02/20 08:51:24;;;;;;;12.77;5.30;;;;;;;;;;4985827;28;20225;-71
2023/02/20 08:53:49;;;;;;;13.57;5.30;;;;;;;;;;4964805;28;20224;-70
2023/02/20 08:56:18;;;;;;;12.97;5.90;;;;;;;;;;4989341;28;20416;-70
2023/02/20 08:58:44;;;;;;;11.13;6.10;;;;;;;;;;4990146;28;20654;-71
2023/02/20 09:01:09;;;;;;;8.33;5.50;;;;;;;;;;4987657;28;20552;-70
2023/02/20 09:03:37;;;;;;;12.90;5.73;;;;;;;;;;4991606;28;20173;-71
2023/02/20 09:06:03;;;;;;;14.23;5.70;;;;;;;;;;4973532;28;20208;-70
2023/02/20 09:08:28;;;;;;;12.60;5.03;;;;;;;;;;4972734;28;20801;-71
2023/02/20 09:10:53;;;;;;;10.27;4.57;;;;;;;;;;4990923;28;20221;-70
2023/02/20 09:13:18;;;;;;;13.10;4.90;;;;;;;;;;4972976;28;20232;-70
2023/02/20 09:15:44;;;;;;;12.50;5.70;;;;;;;;;;4988179;28;20647;-71
2023/02/20 09:18:10;;;;;;;10.87;4.70;;;;;;;;;;4988952;28;20186;-71
2023/02/20 09:20:36;;;;;;;8.60;4.87;;;;;;;;;;4974597;28;20209;-71
2023/02/20 09:23:02;;;;;;;12.67;5.93;;;;;;;;;;4974689;28;20843;-70
2023/02/20 09:25:27;;;;;;;10.80;5.50;;;;;;;;;;4992338;28;20470;-70
2023/02/20 09:27:52;;;;;;;14.63;5.53;;;;;;;;;;4990317;28;20178;-71
2023/02/20 09:30:19;;;;;;;15.73;5.70;;;;;;;;;;4989910;28;20284;-71
2023/02/20 09:32:46;;;;;;;19.10;5.97;;;;;;;;;;4959662;28;20186;-71
2023/02/20 09:35:19;;;;;;;14.30;6.63;;;;;;;;;;4969135;28;20844;-70
2023/02/20 09:37:44;;;;;;;8.83;5.17;;;;;;;;;;4980897;28;20487;-70
2023/02/20 09:40:10;;;;;;;10.20;4.77;;;;;;;;;;4972815;28;20959;-71
2023/02/20 09:42:41;;;;;;;11.20;5.20;;;;;;;;;;4991840;28;20182;-71
2023/02/20 09:45:07;;;;;;;13.73;6.37;;;;;;;;;;4990443;28;20496;-71
2023/02/20 09:47:35;;;;;;;10.80;5.40;;;;;;;;;;4972525;28;20515;-71
2023/02/20 09:50:03;;;;;;;13.80;5.60;;;;;;;;;;4990494;28;20233;-70
2023/02/20 09:52:30;;;;;;;11.80;5.00;;;;;;;;;;4991859;28;20417;-71
2023/02/20 09:55:01;;;;;;;8.97;5.17;;;;;;;;;;4973280;28;20432;-70
2023/02/20 09:57:28;;;;;;;11.43;4.27;;;;;;;;;;4990642;28;20525;-70
2023/02/20 09:59:57;;;;;;;12.87;5.30;;;;;;;;;;4990950;28;20779;-70
2023/02/20 10:02:31;;;;;;;12.90;5.40;;;;;;;;;;4973651;28;20512;-70
2023/02/20 10:05:03;;;;;;;17.07;5.30;;;;;;;;;;4992223;28;20897;-71
2023/02/20 10:07:32;;;;;;;9.50;5.23;;;;;;;;;;4972965;28;20472;-70
2023/02/20 10:09:58;;;;;;;11.37;4.63;;;;;;;;;;4972569;28;20632;-71
2023/02/20 10:12:31;;;;;;;11.67;4.60;;;;;;;;;;4988003;28;20976;-70
2023/02/20 10:15:02;;;;;;;8.17;4.57;;;;;;;;;;4988700;28;20427;-71
2023/02/20 10:17:33;;;;;;;13.03;5.17;;;;;;;;;;4987708;28;20421;-71
2023/02/20 10:20:14;;;;;;;16.33;5.07;;;;;;;;;;4972702;28;20534;-71
2023/02/20 10:22:55;;;;;;;8.60;6.00;;;;;;;;;;4989925;28;20435;-71
2023/02/20 10:25:29;;;;;;;7.23;4.50;;;;;;;;;;4986979;28;20432;-71
2023/02/20 10:28:12;;;;;;;13.43;5.60;;;;;;;;;;4971662;28;20463;-71
2023/02/20 10:30:40;;;;;;;12.83;5.73;;;;;;;;;;4972662;28;20839;-70
2023/02/20 10:33:08;;;;;;;14.33;5.27;;;;;;;;;;4973714;28;20428;-70
2023/02/20 10:35:52;;;;;;;9.70;4.83;;;;;;;;;;4984997;28;20424;-71
2023/02/20 10:38:19;;;;;;;8.83;4.70;;;;;;;;;;4966140;28;20479;-70
2023/02/20 10:41:05;;;;;;;17.07;6.30;;;;;;;;;;4967086;28;20468;-70
2023/02/20 10:43:34;;;;;;;9.47;5.00;;;;;;;;;;4982772;28;20469;-70
2023/02/20 10:46:11;;;;;;;15.57;5.30;;;;;;;;;;4988363;28;20453;-71
2023/02/20 10:48:38;;;;;;;12.27;4.93;;;;;;;;;;4972455;28;20848;-71
2023/02/20 10:51:07;;;;;;;13.10;4.90;;;;;;;;;;4990870;28;20452;-71
2023/02/20 10:53:51;;;;;;;12.60;5.10;;;;;;;;;;4989551;28;20448;-71
2023/02/20 10:56:16;;;;;;;12.03;5.70;;;;;;;;;;4969966;28;20449;-72
2023/02/20 10:59:03;;;;;;;10.10;5.30;;;;;;;;;;4985343;28;20417;-71
2023/02/20 11:01:30;;;;;;;13.03;5.40;;;;;;;;;;4990489;28;20205;-71
2023/02/20 11:04:04;;;;;;;10.80;5.97;;;;;;;;;;4967817;28;20468;-70
2023/02/20 11:06:33;;;;;;;11.43;6.70;;;;;;;;;;4971425;28;20460;-71
2023/02/20 11:08:58;;;;;;;14.17;5.80;;;;;;;;;;4989119;28;20440;-70
2023/02/20 11:11:31;;;;;;;13.70;5.40;;;;;;;;;;4970762;28;20977;-71
2023/02/20 11:14:01;;;;;;;14.80;6.07;;;;;;;;;;4988576;28;20178;-71
2023/02/20 11:16:35;;;;;;;12.70;5.37;;;;;;;;;;4990143;28;20416;-71
2023/02/20 11:19:21;;;;;;;7.43;4.40;;;;;;;;;;4972483;28;20465;-71
2023/02/20 11:21:48;;;;;;;16.87;6.03;;;;;;;;;;4988625;28;20467;-71
2023/02/20 11:24:18;;;;;;;15.00;5.77;;;;;;;;;;4970665;28;20436;-71
2023/02/20 11:26:43;;;;;;;13.43;5.30;;;;;;;;;;4971920;28;21087;-71
2023/02/20 11:29:08;;;;;;;18.30;6.87;;;;;;;;;;4971644;28;20448;-71
2023/02/20 11:31:34;;;;;;;13.60;6.20;;;;;;;;;;4989240;28;20213;-71
2023/02/20 11:34:00;;;;;;;13.80;5.60;;;;;;;;;;4970286;28;20588;-71
2023/02/20 11:36:32;;;;;;;14.77;5.70;;;;;;;;;;4990507;28;20189;-71
2023/02/20 11:38:59;;;;;;;11.77;5.40;;;;;;;;;;4990153;28;20507;-71
2023/02/20 11:41:29;;;;;;;14.23;5.80;;;;;;;;;;4987787;28;20496;-71
2023/02/20 11:44:12;;;;;;;10.83;5.73;;;;;;;;;;4966346;28;20442;-71
2023/02/20 11:46:37;;;;;;;11.03;6.33;;;;;;;;;;4966261;28;20526;-71
2023/02/20 11:49:04;;;;;;;13.53;5.90;;;;;;;;;;4979283;28;20429;-71
2023/02/20 11:51:34;;;;;;;13.10;5.93;;;;;;;;;;4965206;28;20276;-71
2023/02/20 11:54:07;;;;;;;14.03;4.90;;;;;;;;;;4967431;28;20452;-71
2023/02/20 11:56:32;;;;;;;13.00;5.10;;;;;;;;;;4972056;28;20520;-71
2023/02/20 11:59:14;;;;;;;15.67;5.67;;;;;;;;;;4967793;28;20465;-71
2023/02/20 12:01:39;;;;;;;14.00;5.57;;;;;;;;;;4989258;28;20216;-71
2023/02/20 12:04:16;;;;;;;16.53;5.40;;;;;;;;;;4989047;28;20412;-71
2023/02/20 12:06:42;;;;;;;14.93;5.00;;;;;;;;;;4987740;28;20201;-71
2023/02/20 12:09:15;;;;;;;9.77;5.10;;;;;;;;;;4987282;28;20423;-71
2023/02/20 12:11:41;;;;;;;10.83;4.63;;;;;;;;;;4970446;28;20965;-71
2023/02/20 12:14:10;;;;;;;14.50;4.77;;;;;;;;;;4987967;28;20416;-71
2023/02/20 12:16:36;;;;;;;16.27;5.40;;;;;;;;;;4986484;28;20174;-71
2023/02/20 12:19:13;;;;;;;9.57;4.67;;;;;;;;;;4971407;28;20819;-71
2023/02/20 12:21:57;;;;;;;15.63;5.57;;;;;;;;;;4988709;28;20211;-71
2023/02/20 12:24:41;;;;;;;13.43;5.10;;;;;;;;;;4988130;28;20786;-71
2023/02/20 12:27:29;;;;;;;14.60;5.23;;;;;;;;;;4983183;28;20483;-71
2023/02/20 12:30:00;;;;;;;15.60;6.80;;;;;;;;;;4978373;28;20539;-71
2023/02/20 12:32:48;;;;;;;10.77;6.00;;;;;;;;;;4982944;28;20854;-72
2023/02/20 12:35:16;;;;;;;9.93;5.67;;;;;;;;;;4967295;28;20429;-71
2023/02/20 12:37:44;;;;;;;10.50;5.80;;;;;;;;;;4986242;28;20464;-71
2023/02/20 12:40:26;;;;;;;13.27;5.70;;;;;;;;;;4965768;28;20453;-71
2023/02/20 12:43:11;;;;;;;11.40;4.63;;;;;;;;;;4956512;28;20442;-71
2023/02/20 12:45:43;;;;;;;15.80;5.50;;;;;;;;;;4979520;28;20475;-71
2023/02/20 12:48:27;;;;;;;17.17;5.13;;;;;;;;;;4965315;28;20436;-70
2023/02/20 12:50:52;;;;;;;16.10;5.67;;;;;;;;;;4979626;28;20535;-71
2023/02/20 12:53:23;;;;;;;15.57;6.00;;;;;;;;;;4986220;28;20440;-70
2023/02/20 12:55:54;;;;;;;10.90;5.57;;;;;;;;;;4973595;28;20688;-71
2023/02/20 12:58:31;;;;;;;13.60;6.10;;;;;;;;;;4973308;28;20442;-71
2023/02/20 13:00:58;;;;;;;15.40;5.53;;;;;;;;;;4979585;28;20456;-71
2023/02/20 13:03:30;;;;;;;10.23;4.53;;;;;;;;;;4980820;28;20542;-71
2023/02/20 13:05:56;;;;;;;14.17;5.37;;;;;;;;;;4976076;28;20491;-71
2023/02/20 13:08:22;;;;;;;11.00;5.00;;;;;;;;;;4986557;28;20429;-72
2023/02/20 13:11:14;;;;;;;11.90;5.00;;;;;;;;;;4970312;28;20197;-72
2023/02/20 13:13:45;;;;;;;14.80;5.40;;;;;;;;;;4984487;28;20432;-71
2023/02/20 13:16:18;;;;;;;13.57;5.70;;;;;;;;;;4988153;28;20961;-72
2023/02/20 13:18:47;;;;;;;11.63;5.30;;;;;;;;;;4965095;28;20436;-71
2023/02/20 13:21:13;;;;;;;19.97;5.87;;;;;;;;;;4966035;28;20459;-71
2023/02/20 13:23:39;;;;;;;18.20;6.07;;;;;;;;;;4965960;28;20437;-71
2023/02/20 13:26:23;;;;;;;13.13;5.03;;;;;;;;;;4985033;28;20531;-72
2023/02/20 13:28:48;;;;;;;15.13;5.20;;;;;;;;;;4966778;28;20276;-72
2023/02/20 13:31:34;;;;;;;13.33;5.10;;;;;;;;;;4956855;23;20517;-71
2023/02/20 13:34:05;;;;;;;15.63;6.13;;;;;;;;;;4952229;28;20739;-71
2023/02/20 13:36:41;;;;;;;13.17;5.30;;;;;;;;;;4964788;28;20462;-71
2023/02/20 13:39:18;;;;;;;15.00;5.07;;;;;;;;;;4958243;28;20474;-72
2023/02/20 13:41:56;;;;;;;9.37;4.43;;;;;;;;;;4969348;28;20453;-71
2023/02/20 13:44:41;;;;;;;8.70;5.03;;;;;;;;;;4953675;28;20787;-72
2023/02/20 13:47:19;;;;;;;10.37;4.53;;;;;;;;;;4967817;28;20472;-72
2023/02/20 13:49:50;;;;;;;13.50;5.40;;;;;;;;;;4968290;28;20903;-72
2023/02/20 13:52:34;;;;;;;12.73;5.07;;;;;;;;;;4950794;28;20990;-71
2023/02/20 13:55:10;;;;;;;10.80;5.10;;;;;;;;;;4969870;28;20469;-71
2023/02/20 13:57:45;;;;;;;10.80;4.30;;;;;;;;;;4968127;28;20413;-71
2023/02/20 14:00:14;;;;;;;10.23;4.50;;;;;;;;;;4968062;28;20845;-72
2023/02/20 14:02:40;;;;;;;12.87;4.27;;;;;;;;;;4969457;28;20988;-71
2023/02/20 14:05:07;;;;;;;13.13;5.43;;;;;;;;;;4971016;28;20513;-71
2023/02/20 14:07:36;;;;;;;12.83;6.30;;;;;;;;;;4964771;28;20942;-71
2023/02/20 14:10:06;;;;;;;16.33;6.93;;;;;;;;;;4968524;28;20426;-71
2023/02/20 14:12:32;;;;;;;10.63;5.27;;;;;;;;;;4970910;28;20422;-71
2023/02/20 14:14:57;;;;;;;12.03;5.10;;;;;;;;;;4952785;28;20437;-71
2023/02/20 14:17:23;;;;;;;10.30;5.00;;;;;;;;;;4966000;28;20504;-71
2023/02/20 14:20:01;;;;;;;10.00;4.73;;;;;;;;;;4950421;28;20629;-71
2023/02/20 14:22:31;;;;;;;10.10;4.93;;;;;;;;;;4946867;28;20190;-71
2023/02/20 14:25:08;;;;;;;18.07;5.53;;;;;;;;;;4969134;28;20598;-71
2023/02/20 14:27:34;;;;;;;7.53;4.83;;;;;;;;;;4967498;28;20465;-71
2023/02/20 14:30:11;;;;;;;11.23;4.73;;;;;;;;;;4969943;28;20472;-71
2023/02/20 14:32:37;;;;;;;10.37;4.37;;;;;;;;;;4969550;28;20194;-71
2023/02/20 14:35:14;;;;;;;11.93;5.10;;;;;;;;;;4951613;28;20594;-71
2023/02/20 14:38:01;;;;;;;13.37;5.00;;;;;;;;;;4968961;28;20189;-72
2023/02/20 14:40:36;;;;;;;8.40;5.10;;;;;;;;;;4940191;28;20715;-71
2023/02/20 14:43:02;;;;;;;9.50;4.30;;;;;;;;;;4968352;28;20440;-71
2023/02/20 14:45:28;;;;;;;9.97;4.00;;;;;;;;;;4967068;28;20477;-71
2023/02/20 14:47:54;;;;;;;9.00;4.23;;;;;;;;;;4967181;28;20834;-71
2023/02/20 14:50:21;;;;;;;6.50;4.40;;;;;;;;;;4967988;28;20230;-71
2023/02/20 14:52:58;;;;;;;9.17;4.70;;;;;;;;;;4967444;28;20414;-71